createdAt,value
2022-10-19T00:02:09.328Z,15.23
2022-10-19T00:04:36.717Z,15.20
2022-10-19T00:07:11.597Z,15.17
2022-10-19T00:09:38.614Z,15.16
2022-10-19T00:12:05.610Z,15.13
2022-10-19T00:14:32.386Z,15.17
2022-10-19T00:16:59.315Z,15.22
2022-10-19T00:19:28.375Z,15.22
2022-10-19T00:21:55.217Z,15.20
2022-10-19T00:24:22.351Z,15.17
2022-10-19T00:26:49.423Z,15.11
2022-10-19T00:29:16.877Z,15.08
2022-10-19T00:31:43.745Z,15.07
2022-10-19T00:34:10.858Z,15.05
2022-10-19T00:36:40.019Z,15.00
2022-10-19T00:39:09.247Z,15.00
2022-10-19T00:41:39.547Z,15.01
2022-10-19T00:44:13.943Z,15.02
2022-10-19T00:46:43.868Z,14.99
2022-10-19T00:49:15.648Z,14.96
2022-10-19T00:51:46.655Z,14.89
2022-10-19T00:54:14.291Z,14.80
2022-10-19T00:56:45.211Z,14.73
2022-10-19T00:59:14.615Z,14.68
2022-10-19T01:01:43.448Z,14.69
2022-10-19T01:04:11.592Z,14.70
2022-10-19T01:06:40.491Z,14.70
2022-10-19T01:09:13.659Z,14.71
2022-10-19T01:11:43.899Z,14.72
2022-10-19T01:14:35.910Z,14.73
2022-10-19T01:17:12.060Z,14.69
2022-10-19T01:20:00.299Z,14.73
2022-10-19T01:23:04.809Z,14.73
2022-10-19T01:25:57.983Z,14.71
2022-10-19T01:28:32.778Z,14.70
2022-10-19T01:31:34.110Z,14.69
2022-10-19T01:34:28.918Z,14.68
2022-10-19T01:37:22.456Z,14.70
2022-10-19T01:40:04.737Z,14.71
2022-10-19T01:42:33.413Z,14.63
2022-10-19T01:45:10.278Z,14.49
2022-10-19T01:47:45.334Z,14.41
2022-10-19T01:50:22.313Z,14.37
2022-10-19T01:52:51.058Z,14.39
2022-10-19T01:55:19.832Z,14.39
2022-10-19T01:57:51.518Z,14.35
2022-10-19T02:00:20.077Z,14.35
2022-10-19T02:02:50.632Z,14.39
2022-10-19T02:05:22.283Z,14.43
2022-10-19T02:07:55.899Z,14.44
2022-10-19T02:10:24.205Z,14.42
2022-10-19T02:12:54.628Z,14.43
2022-10-19T02:15:27.218Z,14.37
2022-10-19T02:17:59.902Z,14.23
2022-10-19T02:20:29.319Z,14.08
2022-10-19T02:22:57.093Z,14.06
2022-10-19T02:25:25.473Z,14.08
2022-10-19T02:27:53.118Z,14.06
2022-10-19T02:30:22.622Z,14.02
2022-10-19T02:32:50.797Z,14.04
2022-10-19T02:35:18.180Z,13.95
2022-10-19T02:37:45.668Z,13.93
2022-10-19T02:40:13.610Z,13.92
2022-10-19T02:42:56.507Z,13.84
2022-10-19T02:45:28.951Z,13.88
2022-10-19T02:48:11.167Z,13.94
2022-10-19T02:50:39.075Z,13.91
2022-10-19T02:53:06.443Z,13.92
2022-10-19T02:55:33.644Z,13.96
2022-10-19T02:58:00.828Z,14.01
2022-10-19T03:00:28.051Z,14.05
2022-10-19T03:02:55.240Z,14.05
2022-10-19T03:05:22.672Z,14.09
2022-10-19T03:07:49.577Z,14.10
2022-10-19T03:10:16.742Z,14.10
2022-10-19T03:12:44.116Z,14.11
2022-10-19T03:15:16.587Z,14.13
2022-10-19T03:17:43.863Z,14.09
2022-10-19T03:20:11.641Z,14.00
2022-10-19T03:22:38.655Z,13.94
2022-10-19T03:25:06.200Z,13.92
2022-10-19T03:27:33.446Z,13.91
2022-10-19T03:30:00.627Z,13.84
2022-10-19T03:32:27.878Z,13.81
2022-10-19T03:34:54.851Z,13.79
2022-10-19T03:37:21.926Z,13.73
2022-10-19T03:39:49.008Z,13.64
2022-10-19T03:42:16.026Z,13.58
2022-10-19T03:44:42.837Z,13.53
2022-10-19T03:47:09.627Z,13.53
2022-10-19T03:49:38.118Z,13.54
2022-10-19T03:52:07.202Z,13.53
2022-10-19T03:54:33.969Z,13.52
2022-10-19T03:57:00.757Z,13.55
2022-10-19T03:59:27.558Z,13.55
2022-10-19T04:01:54.337Z,13.55
2022-10-19T04:04:21.146Z,13.52
2022-10-19T04:06:50.212Z,13.48
2022-10-19T04:09:19.127Z,13.44
2022-10-19T04:11:46.283Z,13.45
2022-10-19T04:14:22.890Z,13.48
2022-10-19T04:17:03.045Z,13.52
2022-10-19T04:19:30.008Z,13.52
2022-10-19T04:21:58.981Z,13.54
2022-10-19T04:24:25.768Z,13.56
2022-10-19T04:26:55.099Z,13.55
2022-10-19T04:29:26.488Z,13.55
2022-10-19T04:31:56.694Z,13.54
2022-10-19T04:34:24.227Z,13.54
2022-10-19T04:36:51.106Z,13.55
2022-10-19T04:39:18.006Z,13.54
2022-10-19T04:41:44.849Z,13.52
2022-10-19T04:44:16.627Z,13.42
2022-10-19T04:46:49.441Z,13.41
2022-10-19T04:49:19.554Z,13.38
2022-10-19T04:54:51.257Z,13.24
2022-10-19T04:57:44.617Z,13.21
2022-10-19T05:00:14.229Z,13.23
2022-10-19T05:02:45.782Z,13.24
2022-10-19T05:05:15.748Z,13.24
2022-10-19T05:07:43.156Z,13.26
2022-10-19T05:10:13.625Z,13.25
2022-10-19T05:12:40.409Z,13.25
2022-10-19T05:15:07.744Z,13.26
2022-10-19T05:17:34.728Z,13.27
2022-10-19T05:20:01.736Z,13.29
2022-10-19T05:22:28.517Z,13.30
2022-10-19T05:24:58.086Z,13.30
2022-10-19T05:27:25.198Z,13.31
2022-10-19T05:29:52.010Z,13.28
2022-10-19T05:32:18.839Z,13.32
2022-10-19T05:34:53.079Z,13.29
2022-10-19T05:37:19.844Z,13.24
2022-10-19T05:39:46.638Z,13.16
2022-10-19T05:42:13.374Z,13.19
2022-10-19T05:44:40.146Z,13.18
2022-10-19T05:47:07.250Z,13.10
2022-10-19T05:49:34.275Z,13.05
2022-10-19T05:52:10.505Z,12.99
2022-10-19T05:54:37.676Z,13.02
2022-10-19T05:57:07.137Z,13.00
2022-10-19T05:59:34.239Z,12.91
2022-10-19T06:02:04.435Z,12.83
2022-10-19T06:04:32.954Z,12.85
2022-10-19T06:07:00.912Z,12.88
2022-10-19T06:09:27.902Z,12.87
2022-10-19T06:11:54.740Z,12.85
2022-10-19T06:17:22.954Z,12.88
2022-10-19T06:19:52.244Z,12.93
2022-10-19T06:22:22.418Z,12.99
2022-10-19T06:24:49.986Z,13.02
2022-10-19T06:27:16.858Z,12.97
2022-10-19T06:29:44.188Z,12.90
2022-10-19T06:32:11.113Z,12.86
2022-10-19T06:34:38.171Z,12.82
2022-10-19T06:37:08.001Z,12.79
2022-10-19T06:39:37.267Z,12.84
2022-10-19T06:42:10.218Z,12.88
2022-10-19T06:44:37.025Z,12.89
2022-10-19T06:47:03.794Z,12.84
2022-10-19T06:49:30.676Z,12.79
2022-10-19T06:51:57.468Z,12.79
2022-10-19T06:54:25.691Z,12.81
2022-10-19T06:56:52.469Z,12.80
2022-10-19T06:59:19.705Z,12.84
2022-10-19T07:01:46.532Z,12.88
2022-10-19T07:04:13.390Z,12.82
2022-10-19T07:06:40.253Z,12.82
2022-10-19T07:09:07.112Z,12.86
2022-10-19T07:11:33.904Z,12.94
2022-10-19T07:14:00.767Z,12.95
2022-10-19T07:16:27.552Z,12.96
2022-10-19T07:18:54.365Z,12.96
2022-10-19T07:21:23.531Z,12.86
2022-10-19T07:23:50.712Z,12.67
2022-10-19T07:26:23.274Z,12.64
2022-10-19T07:28:50.708Z,12.74
2022-10-19T07:31:20.651Z,12.82
2022-10-19T07:33:55.152Z,12.86
2022-10-19T07:36:22.540Z,12.78
2022-10-19T07:38:49.388Z,12.73
2022-10-19T07:41:19.751Z,12.85
2022-10-19T07:43:47.872Z,12.95
2022-10-19T07:46:17.306Z,13.04
2022-10-19T07:48:45.689Z,13.06
2022-10-19T07:51:14.269Z,13.13
2022-10-19T07:53:41.334Z,13.16
2022-10-19T07:56:16.769Z,13.01
2022-10-19T07:58:43.922Z,13.03
2022-10-19T08:01:16.364Z,13.10
2022-10-19T08:04:42.706Z,13.05
2022-10-19T08:06:31.674Z,12.90
2022-10-19T08:08:58.706Z,12.85
2022-10-19T08:11:31.341Z,12.92
2022-10-19T08:13:59.401Z,12.97
2022-10-19T08:16:40.448Z,13.06
2022-10-19T08:19:16.409Z,13.17
2022-10-19T08:21:45.466Z,13.22
2022-10-19T08:24:14.372Z,13.19
2022-10-19T08:26:41.859Z,13.24
2022-10-19T08:29:14.884Z,13.21
2022-10-19T08:31:43.193Z,13.11
2022-10-19T08:34:10.229Z,13.05
2022-10-19T08:36:37.237Z,13.13
2022-10-19T08:39:06.560Z,13.24
2022-10-19T08:41:51.964Z,13.31
2022-10-19T08:44:27.648Z,13.48
2022-10-19T08:47:26.203Z,13.66
2022-10-19T08:49:53.524Z,13.68
2022-10-19T08:52:24.553Z,13.75
2022-10-19T08:54:53.923Z,13.72
2022-10-19T08:57:40.515Z,13.61
2022-10-19T09:00:21.991Z,13.68
2022-10-19T09:03:23.035Z,13.74
2022-10-19T09:06:21.579Z,13.81
2022-10-19T09:08:51.147Z,13.84
2022-10-19T09:11:29.434Z,13.83
2022-10-19T09:14:25.972Z,13.77
2022-10-19T09:16:54.633Z,13.70
2022-10-19T09:19:26.165Z,13.76
2022-10-19T09:22:08.470Z,13.80
2022-10-19T09:24:51.083Z,13.80
2022-10-19T09:27:23.509Z,13.84
2022-10-19T09:29:58.962Z,13.85
2022-10-19T09:32:35.819Z,13.84
2022-10-19T09:35:18.464Z,13.84
2022-10-19T09:37:49.425Z,13.83
2022-10-19T09:40:21.039Z,13.81
2022-10-19T09:42:52.970Z,13.82
2022-10-19T09:45:42.664Z,13.81
2022-10-19T09:48:33.603Z,13.85
2022-10-19T09:51:02.547Z,13.84
2022-10-19T09:53:30.520Z,13.77
2022-10-19T09:56:04.774Z,13.77
2022-10-19T09:58:33.149Z,13.80
2022-10-19T10:01:02.303Z,13.77
2022-10-19T10:03:33.267Z,13.82
2022-10-19T10:06:03.416Z,13.79
2022-10-19T10:08:34.314Z,13.83
2022-10-19T10:11:01.028Z,13.76
2022-10-19T10:13:28.193Z,13.74
2022-10-19T10:15:59.478Z,13.72
2022-10-19T10:18:28.708Z,13.70
2022-10-19T10:21:25.425Z,13.73
2022-10-19T10:24:05.871Z,13.76
2022-10-19T10:26:42.409Z,13.84
2022-10-19T10:29:24.584Z,13.90
2022-10-19T10:31:56.198Z,13.96
2022-10-19T10:34:45.589Z,14.01
2022-10-19T10:37:41.352Z,14.01
2022-10-19T10:40:23.663Z,14.01
2022-10-19T10:42:52.738Z,14.01
2022-10-19T10:45:40.339Z,13.91
2022-10-19T10:48:27.890Z,13.81
2022-10-19T10:50:56.012Z,13.80
2022-10-19T10:53:33.706Z,13.84
2022-10-19T10:56:00.884Z,13.84
2022-10-19T10:58:34.508Z,13.80
2022-10-19T11:01:07.731Z,13.82
2022-10-19T11:03:37.808Z,13.79
2022-10-19T11:06:04.774Z,13.80
2022-10-19T11:08:31.554Z,13.85
2022-10-19T11:11:24.050Z,13.88
2022-10-19T11:13:56.940Z,13.93
2022-10-19T11:16:39.958Z,13.99
2022-10-19T11:19:25.162Z,14.03
2022-10-19T11:22:13.589Z,14.08
2022-10-19T11:25:18.538Z,14.16
2022-10-19T11:28:06.585Z,14.21
2022-10-19T11:30:42.802Z,14.36
2022-10-19T11:33:13.093Z,14.47
2022-10-19T11:35:54.108Z,14.47
2022-10-19T11:38:29.633Z,14.54
2022-10-19T11:41:19.058Z,14.58
2022-10-19T11:44:15.468Z,14.64
2022-10-19T11:46:57.187Z,14.70
2022-10-19T11:49:43.059Z,14.95
2022-10-19T11:52:31.644Z,15.05
2022-10-19T11:55:30.864Z,15.03
2022-10-19T11:58:16.617Z,15.00
2022-10-19T12:01:13.130Z,14.73
2022-10-19T12:03:45.743Z,14.60
2022-10-19T12:06:34.310Z,14.35
2022-10-19T12:09:16.168Z,14.07
2022-10-19T12:11:52.205Z,14.09
2022-10-19T12:14:26.695Z,14.11
2022-10-19T12:16:57.921Z,14.19
2022-10-19T12:19:33.060Z,14.07
2022-10-19T12:22:03.603Z,14.12
2022-10-19T12:24:32.686Z,14.10
2022-10-19T12:27:01.163Z,14.11
2022-10-19T12:29:33.635Z,14.15
2022-10-19T12:32:02.409Z,14.10
2022-10-19T12:34:35.173Z,14.17
2022-10-19T12:37:33.241Z,14.19
2022-10-19T12:40:28.163Z,14.24
2022-10-19T12:43:09.375Z,14.30
2022-10-19T12:45:42.198Z,14.38
2022-10-19T12:48:08.961Z,14.38
2022-10-19T12:50:48.002Z,14.29
2022-10-19T12:53:36.223Z,14.30
2022-10-19T12:56:17.614Z,14.47
2022-10-19T12:58:46.674Z,14.41
2022-10-19T13:01:22.166Z,14.45
2022-10-19T13:03:53.356Z,14.44
2022-10-19T13:06:26.107Z,14.53
2022-10-19T13:08:52.869Z,14.54
2022-10-19T13:11:21.103Z,14.62
2022-10-19T13:13:56.348Z,14.60
2022-10-19T13:16:29.181Z,14.61
2022-10-19T13:19:28.770Z,14.51
2022-10-19T13:22:26.822Z,14.40
2022-10-19T13:25:26.956Z,14.18
2022-10-19T13:27:55.148Z,14.27
2022-10-19T13:30:41.828Z,14.04
2022-10-19T13:33:30.481Z,14.02
2022-10-19T13:36:00.678Z,14.06
2022-10-19T13:38:30.802Z,14.00
2022-10-19T13:41:12.787Z,14.02
2022-10-19T13:44:02.073Z,14.11
2022-10-19T13:46:28.820Z,14.15
2022-10-19T13:49:01.680Z,14.15
2022-10-19T13:52:05.227Z,14.14
2022-10-19T13:54:41.923Z,14.11
2022-10-19T13:57:44.017Z,13.94
2022-10-19T14:00:15.533Z,13.59
2022-10-19T14:03:24.065Z,13.39
2022-10-19T14:06:18.969Z,13.41
2022-10-19T14:09:13.060Z,13.38
2022-10-19T14:11:44.578Z,13.27
2022-10-19T14:14:11.287Z,13.21
2022-10-19T14:17:01.215Z,13.28
2022-10-19T14:19:50.547Z,13.32
2022-10-19T14:22:19.216Z,13.32
2022-10-19T14:24:46.290Z,13.29
2022-10-19T14:27:19.711Z,13.27
2022-10-19T14:29:49.665Z,13.24
2022-10-19T14:32:18.839Z,13.19
2022-10-19T14:34:48.467Z,13.17
2022-10-19T14:37:19.320Z,13.29
2022-10-19T14:40:05.670Z,13.43
2022-10-19T14:42:46.324Z,13.48
2022-10-19T14:45:15.310Z,13.44
2022-10-19T14:48:21.165Z,13.47
2022-10-19T14:50:51.611Z,13.55
2022-10-19T14:53:40.269Z,13.55
2022-10-19T14:56:19.984Z,13.62
2022-10-19T14:59:22.173Z,13.72
2022-10-19T15:01:51.385Z,13.74
2022-10-19T15:04:25.159Z,13.70
2022-10-19T15:06:53.294Z,13.50
2022-10-19T15:09:37.032Z,13.39
2022-10-19T15:12:09.933Z,13.21
2022-10-19T15:14:38.158Z,13.08
2022-10-19T15:17:21.052Z,12.91
2022-10-19T15:19:47.903Z,12.87
2022-10-19T15:22:14.619Z,12.91
2022-10-19T15:25:07.158Z,13.04
2022-10-19T15:27:36.582Z,13.00
2022-10-19T15:30:24.363Z,12.82
2022-10-19T15:32:56.999Z,12.85
2022-10-19T15:35:29.503Z,12.81
2022-10-19T15:38:27.032Z,12.75
2022-10-19T15:40:59.782Z,12.68
2022-10-19T15:43:35.420Z,12.61
2022-10-19T15:46:24.921Z,12.53
2022-10-19T15:48:55.477Z,12.50
2022-10-19T15:51:25.524Z,12.60
2022-10-19T15:54:03.553Z,12.53
2022-10-19T15:56:33.164Z,12.44
2022-10-19T15:59:02.516Z,12.31
2022-10-19T16:01:32.477Z,12.28
2022-10-19T16:03:59.738Z,12.34
2022-10-19T16:06:29.137Z,12.43
2022-10-19T16:08:56.506Z,12.48
2022-10-19T16:11:24.394Z,12.40
2022-10-19T16:13:51.705Z,12.41
2022-10-19T16:16:25.052Z,12.44
2022-10-19T16:18:52.895Z,12.47
2022-10-19T16:21:21.845Z,12.48
2022-10-19T16:23:48.646Z,12.44
2022-10-19T16:26:17.112Z,12.39
2022-10-19T16:28:44.550Z,12.16
2022-10-19T16:31:11.740Z,12.14
2022-10-19T16:33:38.484Z,12.10
2022-10-19T16:36:08.681Z,11.82
2022-10-19T16:38:36.385Z,11.65
2022-10-19T16:41:08.360Z,11.68
2022-10-19T16:43:35.775Z,11.71
2022-10-19T16:46:03.564Z,11.62
2022-10-19T16:48:30.365Z,11.51
2022-10-19T16:51:06.646Z,11.43
2022-10-19T16:53:38.218Z,11.44
2022-10-19T16:56:11.537Z,11.45
2022-10-19T16:58:40.672Z,11.32
2022-10-19T17:01:12.751Z,11.14
2022-10-19T17:03:39.575Z,11.00
2022-10-19T17:06:07.883Z,10.78
2022-10-19T17:08:53.065Z,10.57
2022-10-19T17:11:28.527Z,10.50
2022-10-19T17:13:58.269Z,10.42
2022-10-19T17:16:29.827Z,10.38
2022-10-19T17:18:58.562Z,10.45
2022-10-19T17:21:28.826Z,10.54
2022-10-19T17:24:01.173Z,10.59
2022-10-19T17:26:36.288Z,10.56
2022-10-19T17:29:04.077Z,10.50
2022-10-19T17:31:31.238Z,10.42
2022-10-19T17:33:58.528Z,10.32
2022-10-19T17:36:28.611Z,10.26
2022-10-19T17:38:57.530Z,10.12
2022-10-19T17:41:25.554Z,10.04
2022-10-19T17:43:53.040Z,10.06
2022-10-19T17:46:31.070Z,10.12
2022-10-19T17:48:58.644Z,10.15
2022-10-19T17:51:30.780Z,10.15
2022-10-19T17:54:02.211Z,10.14
2022-10-19T17:56:29.450Z,10.13
2022-10-19T17:58:57.733Z,10.11
2022-10-19T18:01:25.308Z,10.03
2022-10-19T18:03:52.454Z,9.94
2022-10-19T18:06:28.149Z,9.92
2022-10-19T18:08:56.845Z,9.83
2022-10-19T18:11:25.085Z,9.74
2022-10-19T18:13:54.427Z,9.74
2022-10-19T18:16:27.688Z,9.76
2022-10-19T18:18:57.361Z,9.65
2022-10-19T18:21:26.841Z,9.64
2022-10-19T18:23:56.542Z,9.59
2022-10-19T18:26:26.520Z,9.57
2022-10-19T18:28:54.480Z,9.58
2022-10-19T18:31:29.403Z,9.49
2022-10-19T18:34:02.263Z,9.46
2022-10-19T18:36:29.808Z,9.42
2022-10-19T18:38:59.225Z,9.35
2022-10-19T18:41:26.134Z,9.26
2022-10-19T18:43:55.802Z,9.17
2022-10-19T18:46:25.488Z,9.13
2022-10-19T18:48:53.720Z,9.04
2022-10-19T18:51:22.890Z,8.97
2022-10-19T18:53:50.484Z,8.91
2022-10-19T18:56:20.061Z,8.84
2022-10-19T18:58:47.400Z,8.82
2022-10-19T19:01:19.947Z,8.89
2022-10-19T19:03:49.847Z,8.90
2022-10-19T19:06:19.226Z,8.98
2022-10-19T19:08:46.171Z,9.02
2022-10-19T19:11:16.925Z,9.01
2022-10-19T19:13:51.664Z,8.99
2022-10-19T19:16:19.071Z,8.99
2022-10-19T19:18:45.990Z,9.06
2022-10-19T19:21:17.402Z,9.02
2022-10-19T19:23:44.629Z,9.06
2022-10-19T19:26:13.032Z,9.15
2022-10-19T19:28:41.901Z,9.14
2022-10-19T19:31:11.586Z,9.05
2022-10-19T19:33:39.321Z,8.99
2022-10-19T19:36:07.557Z,8.99
2022-10-19T19:38:35.428Z,8.96
2022-10-19T19:41:06.779Z,8.97
2022-10-19T19:43:37.111Z,9.00
2022-10-19T19:46:09.444Z,8.99
2022-10-19T19:48:37.363Z,9.06
2022-10-19T19:51:04.405Z,9.03
2022-10-19T19:53:31.236Z,9.03
2022-10-19T19:55:58.007Z,8.95
2022-10-19T19:58:24.851Z,8.83
2022-10-19T20:00:51.616Z,8.79
2022-10-19T20:03:18.451Z,8.71
2022-10-19T20:05:45.281Z,8.66
2022-10-19T20:08:12.252Z,8.57
2022-10-19T20:10:40.919Z,8.55
2022-10-19T20:13:07.992Z,8.55
2022-10-19T20:15:38.806Z,8.57
2022-10-19T20:18:06.706Z,8.52
2022-10-19T20:20:33.642Z,8.49
2022-10-19T20:23:00.702Z,8.47
2022-10-19T20:25:27.450Z,8.44
2022-10-19T20:27:54.283Z,8.41
2022-10-19T20:30:21.055Z,8.33
2022-10-19T20:32:47.854Z,8.28
2022-10-19T20:35:14.731Z,8.25
2022-10-19T20:37:41.773Z,8.20
2022-10-19T20:40:09.160Z,8.20
2022-10-19T20:42:36.430Z,8.20
2022-10-19T20:45:03.935Z,8.22
2022-10-19T20:47:30.813Z,8.20
2022-10-19T20:49:57.582Z,8.18
2022-10-19T20:52:24.556Z,8.16
2022-10-19T20:54:51.336Z,8.13
2022-10-19T20:57:18.216Z,8.10
2022-10-19T20:59:45.984Z,8.08
2022-10-19T21:02:13.079Z,8.06
2022-10-19T21:04:39.918Z,8.03
2022-10-19T21:07:06.906Z,8.04
2022-10-19T21:09:33.686Z,8.05
2022-10-19T21:12:03.747Z,8.05
2022-10-19T21:14:30.827Z,8.03
2022-10-19T21:16:58.892Z,8.00
2022-10-19T21:19:27.850Z,7.99
2022-10-19T21:21:57.942Z,7.99
2022-10-19T21:24:28.215Z,7.97
2022-10-19T21:26:55.294Z,7.94
2022-10-19T21:29:22.183Z,7.95
2022-10-19T21:31:51.903Z,7.97
2022-10-19T21:34:24.110Z,7.94
2022-10-19T21:36:51.895Z,7.94
2022-10-19T21:39:19.008Z,7.92
2022-10-19T21:41:46.823Z,7.90
2022-10-19T21:44:15.077Z,7.89
2022-10-19T21:46:43.643Z,7.87
2022-10-19T21:49:14.985Z,7.87
2022-10-19T21:51:55.388Z,7.86
2022-10-19T21:54:41.684Z,7.85
2022-10-19T22:44:56.690Z,8.21
2022-10-19T22:47:23.561Z,8.37
2022-10-19T22:49:50.424Z,8.41
2022-10-19T22:52:17.265Z,8.41
2022-10-19T22:54:43.991Z,8.39
2022-10-19T22:57:11.929Z,8.33
2022-10-19T22:59:39.045Z,8.29
2022-10-19T23:02:05.929Z,8.27
2022-10-19T23:04:32.790Z,8.33
2022-10-19T23:06:59.599Z,8.33
2022-10-19T23:09:26.543Z,8.39
2022-10-19T23:11:53.289Z,8.39
2022-10-19T23:14:20.054Z,8.36
2022-10-19T23:16:46.856Z,8.32
2022-10-19T23:19:13.559Z,8.36
2022-10-19T23:21:40.352Z,8.41
2022-10-19T23:24:07.073Z,8.47
2022-10-19T23:26:33.862Z,8.47
2022-10-19T23:29:00.593Z,8.46
2022-10-19T23:31:30.325Z,8.41
2022-10-19T23:33:57.125Z,8.38
2022-10-19T23:36:27.101Z,8.41
2022-10-19T23:38:55.915Z,8.46
2022-10-19T23:41:22.948Z,8.46
2022-10-19T23:43:50.119Z,8.36
2022-10-19T23:46:16.970Z,8.33
2022-10-19T23:48:43.993Z,8.29
2022-10-19T23:51:13.889Z,8.21
2022-10-19T23:53:43.028Z,8.23
2022-10-19T23:56:13.932Z,8.18
2022-10-19T23:58:41.207Z,8.17
